sensor_id;sensor_type;location;lat;lon;timestamp;pressure;altitude;pressure_sealevel;temperature;humidity
27334;BME280;14817;57.104;-2.094;2023-07-09T00:00:45;100356.19;;;16.21;100.00
27334;BME280;14817;57.104;-2.094;2023-07-09T00:03:13;100358.66;;;16.16;100.00
27334;BME280;14817;57.104;-2.094;2023-07-09T00:05:41;100349.06;;;16.13;100.00
27334;BME280;14817;57.104;-2.094;2023-07-09T00:08:27;100352.84;;;16.19;100.00
27334;BME280;14817;57.104;-2.094;2023-07-09T00:10:56;100352.13;;;16.10;100.00
27334;BME280;14817;57.104;-2.094;2023-07-09T00:13:25;100313.81;;;16.22;100.00
27334;BME280;14817;57.104;-2.094;2023-07-09T00:15:56;100326.16;;;16.31;100.00
27334;BME280;14817;57.104;-2.094;2023-07-09T00:18:24;100305.50;;;16.23;100.00
27334;BME280;14817;57.104;-2.094;2023-07-09T00:20:51;100289.78;;;16.33;100.00
27334;BME280;14817;57.104;-2.094;2023-07-09T00:23:18;100287.22;;;16.25;100.00
27334;BME280;14817;57.104;-2.094;2023-07-09T00:25:46;100292.16;;;16.43;100.00
27334;BME280;14817;57.104;-2.094;2023-07-09T00:28:17;100310.63;;;16.40;100.00
27334;BME280;14817;57.104;-2.094;2023-07-09T00:30:45;100329.94;;;16.15;100.00
27334;BME280;14817;57.104;-2.094;2023-07-09T00:33:13;100309.13;;;16.09;100.00
27334;BME280;14817;57.104;-2.094;2023-07-09T00:35:46;100294.97;;;16.07;100.00
27334;BME280;14817;57.104;-2.094;2023-07-09T00:38:21;100280.38;;;16.01;100.00
27334;BME280;14817;57.104;-2.094;2023-07-09T00:41:06;100243.38;;;16.02;100.00
27334;BME280;14817;57.104;-2.094;2023-07-09T00:43:37;100218.69;;;16.05;100.00
27334;BME280;14817;57.104;-2.094;2023-07-09T00:51:21;100246.22;;;15.93;100.00
27334;BME280;14817;57.104;-2.094;2023-07-09T00:53:57;100252.41;;;15.87;100.00
27334;BME280;14817;57.104;-2.094;2023-07-09T00:56:38;100258.88;;;15.93;100.00
27334;BME280;14817;57.104;-2.094;2023-07-09T00:59:11;100265.72;;;15.89;100.00
27334;BME280;14817;57.104;-2.094;2023-07-09T01:01:42;100251.56;;;15.87;100.00
27334;BME280;14817;57.104;-2.094;2023-07-09T01:04:10;100229.19;;;15.93;100.00
27334;BME280;14817;57.104;-2.094;2023-07-09T01:06:43;100222.06;;;15.85;100.00
27334;BME280;14817;57.104;-2.094;2023-07-09T01:09:11;100212.69;;;15.81;100.00
27334;BME280;14817;57.104;-2.094;2023-07-09T01:11:38;100213.91;;;15.64;100.00
27334;BME280;14817;57.104;-2.094;2023-07-09T01:14:09;100203.66;;;15.74;100.00
27334;BME280;14817;57.104;-2.094;2023-07-09T01:16:37;100198.78;;;15.84;100.00
27334;BME280;14817;57.104;-2.094;2023-07-09T01:19:06;100181.44;;;15.72;100.00
27334;BME280;14817;57.104;-2.094;2023-07-09T01:21:33;100164.25;;;15.80;100.00
27334;BME280;14817;57.104;-2.094;2023-07-09T01:24:12;100167.75;;;15.74;100.00
27334;BME280;14817;57.104;-2.094;2023-07-09T01:26:40;100178.41;;;15.82;100.00
27334;BME280;14817;57.104;-2.094;2023-07-09T01:29:10;100180.66;;;15.78;100.00
27334;BME280;14817;57.104;-2.094;2023-07-09T01:31:39;100146.66;;;15.62;100.00
27334;BME280;14817;57.104;-2.094;2023-07-09T01:34:06;100134.63;;;15.65;100.00
27334;BME280;14817;57.104;-2.094;2023-07-09T01:36:32;100142.91;;;15.63;100.00
27334;BME280;14817;57.104;-2.094;2023-07-09T01:39:01;100141.44;;;15.82;100.00
27334;BME280;14817;57.104;-2.094;2023-07-09T01:41:28;100120.63;;;15.76;100.00
27334;BME280;14817;57.104;-2.094;2023-07-09T01:43:55;100124.22;;;15.83;100.00
27334;BME280;14817;57.104;-2.094;2023-07-09T01:46:23;100112.50;;;15.76;100.00
27334;BME280;14817;57.104;-2.094;2023-07-09T01:48:49;100104.94;;;15.65;100.00
27334;BME280;14817;57.104;-2.094;2023-07-09T01:51:19;100101.81;;;15.68;100.00
27334;BME280;14817;57.104;-2.094;2023-07-09T01:53:46;100144.31;;;15.59;100.00
27334;BME280;14817;57.104;-2.094;2023-07-09T01:56:13;100138.50;;;15.56;100.00
27334;BME280;14817;57.104;-2.094;2023-07-09T01:58:40;100114.25;;;15.62;100.00
27334;BME280;14817;57.104;-2.094;2023-07-09T02:01:10;100100.72;;;15.56;100.00
27334;BME280;14817;57.104;-2.094;2023-07-09T02:03:37;100086.75;;;15.52;100.00
27334;BME280;14817;57.104;-2.094;2023-07-09T02:06:04;100098.97;;;15.48;100.00
27334;BME280;14817;57.104;-2.094;2023-07-09T02:08:37;100077.16;;;15.43;100.00
27334;BME280;14817;57.104;-2.094;2023-07-09T02:11:04;100085.44;;;15.41;100.00
27334;BME280;14817;57.104;-2.094;2023-07-09T02:13:31;100065.13;;;15.45;100.00
27334;BME280;14817;57.104;-2.094;2023-07-09T02:15:58;100074.63;;;15.41;100.00
27334;BME280;14817;57.104;-2.094;2023-07-09T02:18:28;100077.16;;;15.43;100.00
27334;BME280;14817;57.104;-2.094;2023-07-09T02:20:55;100066.53;;;15.41;100.00
27334;BME280;14817;57.104;-2.094;2023-07-09T02:23:26;100075.09;;;15.45;100.00
27334;BME280;14817;57.104;-2.094;2023-07-09T02:25:54;100085.81;;;15.38;100.00
27334;BME280;14817;57.104;-2.094;2023-07-09T02:28:21;100078.75;;;15.37;100.00
27334;BME280;14817;57.104;-2.094;2023-07-09T02:30:47;100074.59;;;15.35;100.00
27334;BME280;14817;57.104;-2.094;2023-07-09T02:33:14;100072.06;;;15.33;100.00
27334;BME280;14817;57.104;-2.094;2023-07-09T02:35:42;100067.50;;;15.34;100.00
27334;BME280;14817;57.104;-2.094;2023-07-09T02:38:08;100063.75;;;15.28;100.00
27334;BME280;14817;57.104;-2.094;2023-07-09T02:40:35;100048.47;;;15.42;100.00
27334;BME280;14817;57.104;-2.094;2023-07-09T02:43:03;100059.03;;;15.37;100.00
27334;BME280;14817;57.104;-2.094;2023-07-09T02:45:30;100060.47;;;15.32;100.00
27334;BME280;14817;57.104;-2.094;2023-07-09T02:47:57;100059.81;;;15.30;100.00
27334;BME280;14817;57.104;-2.094;2023-07-09T02:50:24;100051.53;;;15.32;100.00
27334;BME280;14817;57.104;-2.094;2023-07-09T02:52:51;100043.63;;;15.30;100.00
27334;BME280;14817;57.104;-2.094;2023-07-09T02:55:18;100043.88;;;15.36;100.00
27334;BME280;14817;57.104;-2.094;2023-07-09T02:57:44;100043.69;;;15.37;100.00
27334;BME280;14817;57.104;-2.094;2023-07-09T03:00:12;100041.81;;;15.38;100.00
27334;BME280;14817;57.104;-2.094;2023-07-09T03:02:39;100040.53;;;15.34;100.00
27334;BME280;14817;57.104;-2.094;2023-07-09T03:05:06;100048.75;;;15.47;100.00
27334;BME280;14817;57.104;-2.094;2023-07-09T03:07:33;100041.81;;;15.38;100.00
27334;BME280;14817;57.104;-2.094;2023-07-09T03:10:00;100021.31;;;15.43;100.00
27334;BME280;14817;57.104;-2.094;2023-07-09T03:12:26;100013.81;;;15.39;100.00
27334;BME280;14817;57.104;-2.094;2023-07-09T03:14:53;100019.44;;;15.44;100.00
27334;BME280;14817;57.104;-2.094;2023-07-09T03:17:20;100024.56;;;15.32;100.00
27334;BME280;14817;57.104;-2.094;2023-07-09T03:19:47;100024.97;;;15.36;100.00
27334;BME280;14817;57.104;-2.094;2023-07-09T03:22:14;99996.72;;;15.31;100.00
27334;BME280;14817;57.104;-2.094;2023-07-09T03:24:41;99981.16;;;15.34;100.00
27334;BME280;14817;57.104;-2.094;2023-07-09T03:27:08;99984.47;;;15.29;100.00
27334;BME280;14817;57.104;-2.094;2023-07-09T03:29:35;99970.78;;;15.30;100.00
27334;BME280;14817;57.104;-2.094;2023-07-09T03:32:02;99968.72;;;15.32;100.00
27334;BME280;14817;57.104;-2.094;2023-07-09T03:34:29;99955.28;;;15.11;100.00
27334;BME280;14817;57.104;-2.094;2023-07-09T03:36:56;99946.25;;;15.25;100.00
27334;BME280;14817;57.104;-2.094;2023-07-09T03:39:23;99942.00;;;15.09;100.00
27334;BME280;14817;57.104;-2.094;2023-07-09T03:41:50;99934.94;;;15.08;100.00
27334;BME280;14817;57.104;-2.094;2023-07-09T03:44:17;99925.34;;;15.06;100.00
27334;BME280;14817;57.104;-2.094;2023-07-09T03:46:43;99927.41;;;15.04;100.00
27334;BME280;14817;57.104;-2.094;2023-07-09T03:49:10;99914.34;;;15.01;100.00
27334;BME280;14817;57.104;-2.094;2023-07-09T03:51:37;99908.94;;;15.01;100.00
27334;BME280;14817;57.104;-2.094;2023-07-09T03:54:04;99901.81;;;14.93;100.00
27334;BME280;14817;57.104;-2.094;2023-07-09T03:56:32;99901.22;;;14.98;100.00
27334;BME280;14817;57.104;-2.094;2023-07-09T03:58:58;99895.47;;;15.01;100.00
27334;BME280;14817;57.104;-2.094;2023-07-09T04:01:25;99893.59;;;15.01;100.00
27334;BME280;14817;57.104;-2.094;2023-07-09T04:03:53;99886.09;;;14.97;100.00
27334;BME280;14817;57.104;-2.094;2023-07-09T04:06:20;99878.47;;;15.00;100.00
27334;BME280;14817;57.104;-2.094;2023-07-09T04:08:47;99865.13;;;14.92;100.00
27334;BME280;14817;57.104;-2.094;2023-07-09T04:11:14;99873.66;;;14.96;100.00
27334;BME280;14817;57.104;-2.094;2023-07-09T04:13:41;99850.91;;;15.05;100.00
27334;BME280;14817;57.104;-2.094;2023-07-09T04:16:09;99858.56;;;15.08;100.00
27334;BME280;14817;57.104;-2.094;2023-07-09T04:18:37;99851.91;;;15.04;100.00
27334;BME280;14817;57.104;-2.094;2023-07-09T04:21:04;99838.84;;;15.01;100.00
27334;BME280;14817;57.104;-2.094;2023-07-09T04:23:31;99839.06;;;15.06;100.00
27334;BME280;14817;57.104;-2.094;2023-07-09T04:25:58;99831.13;;;14.98;100.00
27334;BME280;14817;57.104;-2.094;2023-07-09T04:28:25;99832.47;;;15.08;100.00
27334;BME280;14817;57.104;-2.094;2023-07-09T04:30:52;99828.91;;;15.08;100.00
27334;BME280;14817;57.104;-2.094;2023-07-09T04:33:19;99837.03;;;15.15;100.00
27334;BME280;14817;57.104;-2.094;2023-07-09T04:35:48;99842.00;;;15.11;100.00
27334;BME280;14817;57.104;-2.094;2023-07-09T04:38:15;99839.06;;;15.06;100.00
27334;BME280;14817;57.104;-2.094;2023-07-09T04:40:43;99831.00;;;15.13;100.00
27334;BME280;14817;57.104;-2.094;2023-07-09T04:43:10;99833.44;;;15.01;100.00
27334;BME280;14817;57.104;-2.094;2023-07-09T04:45:36;99829.88;;;14.94;100.00
27334;BME280;14817;57.104;-2.094;2023-07-09T04:48:04;99823.28;;;15.03;100.00
27334;BME280;14817;57.104;-2.094;2023-07-09T04:50:31;99822.03;;;14.99;100.00
27334;BME280;14817;57.104;-2.094;2023-07-09T04:52:58;99811.88;;;15.01;100.00
27334;BME280;14817;57.104;-2.094;2023-07-09T04:55:26;99809.25;;;15.14;100.00
27334;BME280;14817;57.104;-2.094;2023-07-09T04:57:53;99809.19;;;15.01;100.00
27334;BME280;14817;57.104;-2.094;2023-07-09T05:00:20;99813.75;;;15.00;100.00
27334;BME280;14817;57.104;-2.094;2023-07-09T05:02:47;99808.41;;;15.14;100.00
27334;BME280;14817;57.104;-2.094;2023-07-09T05:05:14;99806.69;;;15.06;100.00
27334;BME280;14817;57.104;-2.094;2023-07-09T05:07:41;99803.63;;;15.09;100.00
27334;BME280;14817;57.104;-2.094;2023-07-09T05:10:08;99800.59;;;14.90;100.00
27334;BME280;14817;57.104;-2.094;2023-07-09T05:12:35;99798.41;;;15.07;100.00
27334;BME280;14817;57.104;-2.094;2023-07-09T05:15:02;99796.50;;;14.95;100.00
27334;BME280;14817;57.104;-2.094;2023-07-09T05:17:29;99787.63;;;15.07;100.00
27334;BME280;14817;57.104;-2.094;2023-07-09T05:19:56;99782.69;;;15.11;100.00
27334;BME280;14817;57.104;-2.094;2023-07-09T05:22:22;99785.97;;;15.06;100.00
27334;BME280;14817;57.104;-2.094;2023-07-09T05:24:49;99792.19;;;15.07;100.00
27334;BME280;14817;57.104;-2.094;2023-07-09T05:27:16;99798.22;;;15.09;100.00
27334;BME280;14817;57.104;-2.094;2023-07-09T05:29:43;99794.94;;;15.14;100.00
27334;BME280;14817;57.104;-2.094;2023-07-09T05:32:10;99795.72;;;15.07;100.00
27334;BME280;14817;57.104;-2.094;2023-07-09T05:34:36;99781.47;;;15.20;100.00
27334;BME280;14817;57.104;-2.094;2023-07-09T05:37:03;99783.06;;;15.08;100.00
27334;BME280;14817;57.104;-2.094;2023-07-09T05:39:30;99779.34;;;15.09;100.00
27334;BME280;14817;57.104;-2.094;2023-07-09T05:41:57;99771.75;;;15.26;100.00
27334;BME280;14817;57.104;-2.094;2023-07-09T05:44:24;99766.53;;;15.18;100.00
27334;BME280;14817;57.104;-2.094;2023-07-09T05:46:50;99774.38;;;15.13;100.00
27334;BME280;14817;57.104;-2.094;2023-07-09T05:49:17;99761.09;;;15.11;100.00
27334;BME280;14817;57.104;-2.094;2023-07-09T05:51:44;99751.59;;;15.15;100.00
27334;BME280;14817;57.104;-2.094;2023-07-09T05:54:11;99764.06;;;15.29;100.00
27334;BME280;14817;57.104;-2.094;2023-07-09T05:56:38;99769.41;;;15.16;100.00
27334;BME280;14817;57.104;-2.094;2023-07-09T05:59:06;99769.19;;;15.11;100.00
27334;BME280;14817;57.104;-2.094;2023-07-09T06:01:33;99760.69;;;15.14;100.00
27334;BME280;14817;57.104;-2.094;2023-07-09T06:03:59;99757.22;;;15.27;100.00
27334;BME280;14817;57.104;-2.094;2023-07-09T06:06:27;99756.94;;;15.08;100.00
27334;BME280;14817;57.104;-2.094;2023-07-09T06:08:54;99750.31;;;15.11;100.00
27334;BME280;14817;57.104;-2.094;2023-07-09T06:11:21;99754.03;;;15.10;100.00
27334;BME280;14817;57.104;-2.094;2023-07-09T06:13:48;99738.28;;;15.14;100.00
27334;BME280;14817;57.104;-2.094;2023-07-09T06:16:15;99738.72;;;15.17;100.00
27334;BME280;14817;57.104;-2.094;2023-07-09T06:18:42;99729.41;;;15.20;100.00
27334;BME280;14817;57.104;-2.094;2023-07-09T06:21:09;99717.38;;;15.22;100.00
27334;BME280;14817;57.104;-2.094;2023-07-09T06:23:38;99715.31;;;15.24;100.00
27334;BME280;14817;57.104;-2.094;2023-07-09T06:26:05;99718.41;;;15.21;100.00
27334;BME280;14817;57.104;-2.094;2023-07-09T06:28:32;99721.94;;;15.22;100.00
27334;BME280;14817;57.104;-2.094;2023-07-09T06:30:59;99724.22;;;15.25;100.00
27334;BME280;14817;57.104;-2.094;2023-07-09T06:33:27;99727.97;;;15.30;100.00
27334;BME280;14817;57.104;-2.094;2023-07-09T06:35:58;99733.81;;;15.34;100.00
27334;BME280;14817;57.104;-2.094;2023-07-09T06:38:26;99732.94;;;15.27;100.00
27334;BME280;14817;57.104;-2.094;2023-07-09T06:40:53;99739.13;;;15.21;100.00
27334;BME280;14817;57.104;-2.094;2023-07-09T06:43:20;99727.53;;;15.27;100.00
27334;BME280;14817;57.104;-2.094;2023-07-09T06:45:59;99729.44;;;15.40;100.00
27334;BME280;14817;57.104;-2.094;2023-07-09T06:48:28;99741.47;;;15.30;100.00
27334;BME280;14817;57.104;-2.094;2023-07-09T06:50:56;99741.91;;;15.34;100.00
27334;BME280;14817;57.104;-2.094;2023-07-09T06:53:24;99738.78;;;15.30;100.00
27334;BME280;14817;57.104;-2.094;2023-07-09T06:55:51;99744.34;;;15.29;100.00
27334;BME280;14817;57.104;-2.094;2023-07-09T06:58:22;99740.66;;;15.37;100.00
27334;BME280;14817;57.104;-2.094;2023-07-09T07:00:52;99738.34;;;15.34;100.00
27334;BME280;14817;57.104;-2.094;2023-07-09T07:03:19;99732.16;;;15.40;100.00
27334;BME280;14817;57.104;-2.094;2023-07-09T07:05:48;99726.31;;;15.36;100.00
27334;BME280;14817;57.104;-2.094;2023-07-09T07:08:21;99727.81;;;15.45;100.00
27334;BME280;14817;57.104;-2.094;2023-07-09T07:10:53;99722.63;;;15.44;100.00
27334;BME280;14817;57.104;-2.094;2023-07-09T07:13:25;99738.38;;;15.40;100.00
27334;BME280;14817;57.104;-2.094;2023-07-09T07:15:55;99727.19;;;15.43;100.00
27334;BME280;14817;57.104;-2.094;2023-07-09T07:18:22;99717.47;;;15.56;100.00
27334;BME280;14817;57.104;-2.094;2023-07-09T07:20:50;99727.19;;;15.43;100.00
27334;BME280;14817;57.104;-2.094;2023-07-09T07:23:17;99727.63;;;15.47;100.00
27334;BME280;14817;57.104;-2.094;2023-07-09T07:25:45;99717.66;;;15.47;100.00
27334;BME280;14817;57.104;-2.094;2023-07-09T07:28:13;99721.78;;;15.50;100.00
27334;BME280;14817;57.104;-2.094;2023-07-09T07:30:40;99720.56;;;15.59;100.00
27334;BME280;14817;57.104;-2.094;2023-07-09T07:33:07;99719.75;;;15.59;100.00
27334;BME280;14817;57.104;-2.094;2023-07-09T07:35:34;99709.38;;;15.62;100.00
27334;BME280;14817;57.104;-2.094;2023-07-09T07:38:00;99718.09;;;15.64;100.00
27334;BME280;14817;57.104;-2.094;2023-07-09T07:40:27;99713.53;;;15.65;100.00
27334;BME280;14817;57.104;-2.094;2023-07-09T07:42:54;99710.19;;;15.63;100.00
27334;BME280;14817;57.104;-2.094;2023-07-09T07:45:21;99701.75;;;15.73;100.00
27334;BME280;14817;57.104;-2.094;2023-07-09T07:47:48;99700.25;;;15.77;100.00
27334;BME280;14817;57.104;-2.094;2023-07-09T07:50:18;99689.47;;;15.77;100.00
27334;BME280;14817;57.104;-2.094;2023-07-09T07:52:45;99686.75;;;15.77;100.00
27334;BME280;14817;57.104;-2.094;2023-07-09T07:55:12;99683.03;;;15.78;100.00
27334;BME280;14817;57.104;-2.094;2023-07-09T07:57:44;99678.06;;;15.81;100.00
27334;BME280;14817;57.104;-2.094;2023-07-09T08:00:11;99670.78;;;15.88;100.00
27334;BME280;14817;57.104;-2.094;2023-07-09T08:02:38;99667.66;;;15.85;100.00
27334;BME280;14817;57.104;-2.094;2023-07-09T08:05:06;99663.75;;;15.87;100.00
27334;BME280;14817;57.104;-2.094;2023-07-09T08:07:33;99646.47;;;16.02;100.00
27334;BME280;14817;57.104;-2.094;2023-07-09T08:09:59;99643.97;;;15.93;100.00
27334;BME280;14817;57.104;-2.094;2023-07-09T08:12:26;99641.28;;;15.93;100.00
27334;BME280;14817;57.104;-2.094;2023-07-09T08:14:53;99640.88;;;15.90;100.00
27334;BME280;14817;57.104;-2.094;2023-07-09T08:17:20;99640.47;;;15.86;100.00
27334;BME280;14817;57.104;-2.094;2023-07-09T08:19:49;99647.13;;;15.84;100.00
27334;BME280;14817;57.104;-2.094;2023-07-09T08:22:16;99647.53;;;15.94;100.00
27334;BME280;14817;57.104;-2.094;2023-07-09T08:24:43;99651.28;;;15.80;100.00
27334;BME280;14817;57.104;-2.094;2023-07-09T08:27:11;99658.13;;;15.76;100.00
27334;BME280;14817;57.104;-2.094;2023-07-09T08:29:38;99652.09;;;15.80;100.00
27334;BME280;14817;57.104;-2.094;2023-07-09T08:32:07;99663.31;;;15.77;100.00
27334;BME280;14817;57.104;-2.094;2023-07-09T08:34:34;99645.47;;;15.96;100.00
27334;BME280;14817;57.104;-2.094;2023-07-09T08:37:01;99650.00;;;15.89;100.00
27334;BME280;14817;57.104;-2.094;2023-07-09T08:39:28;99657.09;;;15.83;100.00
27334;BME280;14817;57.104;-2.094;2023-07-09T08:42:10;99657.50;;;15.87;100.00
27334;BME280;14817;57.104;-2.094;2023-07-09T08:44:44;99649.00;;;15.90;100.00
27334;BME280;14817;57.104;-2.094;2023-07-09T08:50:09;99648.97;;;16.10;100.00
27334;BME280;14817;57.104;-2.094;2023-07-09T08:52:40;99644.19;;;15.99;100.00
27334;BME280;14817;57.104;-2.094;2023-07-09T08:57:43;99646.69;;;16.07;100.00
27334;BME280;14817;57.104;-2.094;2023-07-09T09:00:34;99641.88;;;16.02;100.00
27334;BME280;14817;57.104;-2.094;2023-07-09T09:03:16;99641.28;;;16.07;100.00
27334;BME280;14817;57.104;-2.094;2023-07-09T09:05:50;99648.53;;;16.06;100.00
27334;BME280;14817;57.104;-2.094;2023-07-09T09:11:04;99637.72;;;16.26;100.00
27334;BME280;14817;57.104;-2.094;2023-07-09T09:13:35;99648.72;;;16.31;100.00
27334;BME280;14817;57.104;-2.094;2023-07-09T09:16:06;99651.19;;;16.40;100.00
27334;BME280;14817;57.104;-2.094;2023-07-09T09:18:42;99645.13;;;16.44;100.00
27334;BME280;14817;57.104;-2.094;2023-07-09T09:21:29;99643.22;;;16.65;100.00
27334;BME280;14817;57.104;-2.094;2023-07-09T09:24:09;99644.31;;;16.44;100.00
27334;BME280;14817;57.104;-2.094;2023-07-09T09:26:41;99645.31;;;16.63;100.00
27334;BME280;14817;57.104;-2.094;2023-07-09T09:29:14;99652.75;;;16.67;100.00
27334;BME280;14817;57.104;-2.094;2023-07-09T09:31:48;99656.50;;;16.73;100.00
27334;BME280;14817;57.104;-2.094;2023-07-09T09:34:21;99656.25;;;16.74;100.00
27334;BME280;14817;57.104;-2.094;2023-07-09T09:36:48;99653.19;;;16.58;100.00
27334;BME280;14817;57.104;-2.094;2023-07-09T09:39:17;99642.31;;;16.84;100.00
27334;BME280;14817;57.104;-2.094;2023-07-09T09:41:44;99643.88;;;17.05;100.00
27334;BME280;14817;57.104;-2.094;2023-07-09T09:44:32;99641.66;;;17.59;100.00
27334;BME280;14817;57.104;-2.094;2023-07-09T09:47:00;99635.69;;;18.01;100.00
27334;BME280;14817;57.104;-2.094;2023-07-09T09:49:27;99652.53;;;18.28;100.00
27334;BME280;14817;57.104;-2.094;2023-07-09T09:51:54;99667.31;;;18.50;100.00
27334;BME280;14817;57.104;-2.094;2023-07-09T09:54:27;99696.69;;;18.53;100.00
27334;BME280;14817;57.104;-2.094;2023-07-09T09:56:57;99721.72;;;19.11;100.00
27334;BME280;14817;57.104;-2.094;2023-07-09T09:59:29;99755.88;;;18.82;100.00
27334;BME280;14817;57.104;-2.094;2023-07-09T10:01:59;99780.06;;;18.83;100.00
27334;BME280;14817;57.104;-2.094;2023-07-09T10:04:27;99824.66;;;19.12;100.00
27334;BME280;14817;57.104;-2.094;2023-07-09T10:07:01;99853.13;;;18.85;100.00
27334;BME280;14817;57.104;-2.094;2023-07-09T10:09:51;99882.69;;;18.93;100.00
27334;BME280;14817;57.104;-2.094;2023-07-09T10:21:05;99914.28;;;17.65;100.00
27334;BME280;14817;57.104;-2.094;2023-07-09T10:23:50;99900.91;;;17.70;100.00
27334;BME280;14817;57.104;-2.094;2023-07-09T10:26:33;99893.81;;;17.83;100.00
27334;BME280;14817;57.104;-2.094;2023-07-09T10:31:58;99881.81;;;17.59;100.00
27334;BME280;14817;57.104;-2.094;2023-07-09T10:37:43;99854.78;;;17.97;100.00
27334;BME280;14817;57.104;-2.094;2023-07-09T10:40:17;99863.69;;;18.04;100.00
27334;BME280;14817;57.104;-2.094;2023-07-09T10:42:50;99859.03;;;18.43;100.00
27334;BME280;14817;57.104;-2.094;2023-07-09T10:45:40;99872.59;;;19.00;100.00
27334;BME280;14817;57.104;-2.094;2023-07-09T10:48:13;99909.38;;;19.40;100.00
27334;BME280;14817;57.104;-2.094;2023-07-09T10:50:47;99948.31;;;19.70;100.00
27334;BME280;14817;57.104;-2.094;2023-07-09T10:53:46;99991.78;;;20.07;100.00
27334;BME280;14817;57.104;-2.094;2023-07-09T10:56:23;100031.69;;;20.62;100.00
27334;BME280;14817;57.104;-2.094;2023-07-09T11:01:31;100082.88;;;20.16;100.00
27334;BME280;14817;57.104;-2.094;2023-07-09T11:04:03;100093.03;;;20.03;100.00
27334;BME280;14817;57.104;-2.094;2023-07-09T11:06:36;100077.44;;;20.16;100.00
27334;BME280;14817;57.104;-2.094;2023-07-09T11:09:16;100090.84;;;20.48;100.00
27334;BME280;14817;57.104;-2.094;2023-07-09T11:11:49;100105.59;;;21.50;100.00
27334;BME280;14817;57.104;-2.094;2023-07-09T11:17:04;100159.75;;;21.58;100.00
27334;BME280;14817;57.104;-2.094;2023-07-09T11:19:44;100164.00;;;21.54;100.00
27334;BME280;14817;57.104;-2.094;2023-07-09T11:22:20;100193.66;;;21.74;100.00
27334;BME280;14817;57.104;-2.094;2023-07-09T11:24:50;100238.84;;;22.47;100.00
27334;BME280;14817;57.104;-2.094;2023-07-09T11:27:22;100273.22;;;22.25;100.00
27334;BME280;14817;57.104;-2.094;2023-07-09T11:32:26;100315.38;;;20.26;100.00
27334;BME280;14817;57.104;-2.094;2023-07-09T11:34:54;100322.22;;;20.60;100.00
27334;BME280;14817;57.104;-2.094;2023-07-09T11:37:25;100327.22;;;20.38;100.00
27334;BME280;14817;57.104;-2.094;2023-07-09T11:39:52;100313.69;;;20.25;100.00
27334;BME280;14817;57.104;-2.094;2023-07-09T11:42:28;100310.75;;;20.26;100.00
27334;BME280;14817;57.104;-2.094;2023-07-09T11:45:09;100307.09;;;19.82;100.00
27334;BME280;14817;57.104;-2.094;2023-07-09T11:47:41;100284.84;;;19.60;100.00
27334;BME280;14817;57.104;-2.094;2023-07-09T11:50:26;100280.16;;;19.35;100.00
27334;BME280;14817;57.104;-2.094;2023-07-09T11:52:59;100266.72;;;19.47;100.00
27334;BME280;14817;57.104;-2.094;2023-07-09T11:55:45;100260.88;;;19.89;100.00
27334;BME280;14817;57.104;-2.094;2023-07-09T11:58:15;100261.75;;;19.83;100.00
27334;BME280;14817;57.104;-2.094;2023-07-09T12:00:45;100273.66;;;19.82;100.00
27334;BME280;14817;57.104;-2.094;2023-07-09T12:03:21;100273.31;;;19.65;100.00
27334;BME280;14817;57.104;-2.094;2023-07-09T12:06:16;100254.19;;;20.10;100.00
27334;BME280;14817;57.104;-2.094;2023-07-09T12:08:46;100251.88;;;20.64;100.00
27334;BME280;14817;57.104;-2.094;2023-07-09T12:11:30;100277.44;;;20.99;100.00
27334;BME280;14817;57.104;-2.094;2023-07-09T12:14:24;100336.34;;;21.31;100.00
27334;BME280;14817;57.104;-2.094;2023-07-09T12:16:52;100366.91;;;20.71;100.00
27334;BME280;14817;57.104;-2.094;2023-07-09T12:19:22;100375.88;;;19.83;100.00
27334;BME280;14817;57.104;-2.094;2023-07-09T12:21:52;100370.97;;;19.53;100.00
27334;BME280;14817;57.104;-2.094;2023-07-09T12:24:24;100371.59;;;20.00;100.00
27334;BME280;14817;57.104;-2.094;2023-07-09T12:26:53;100367.34;;;19.72;100.00
27334;BME280;14817;57.104;-2.094;2023-07-09T12:29:25;100365.81;;;19.90;100.00
27334;BME280;14817;57.104;-2.094;2023-07-09T12:31:52;100362.06;;;19.84;100.00
27334;BME280;14817;57.104;-2.094;2023-07-09T12:34:19;100350.88;;;19.99;100.00
27334;BME280;14817;57.104;-2.094;2023-07-09T12:36:49;100334.56;;;20.31;100.00
27334;BME280;14817;57.104;-2.094;2023-07-09T12:39:21;100345.38;;;20.12;100.00
27334;BME280;14817;57.104;-2.094;2023-07-09T12:41:51;100346.78;;;20.78;100.00
27334;BME280;14817;57.104;-2.094;2023-07-09T12:44:22;100366.84;;;21.03;100.00
27334;BME280;14817;57.104;-2.094;2023-07-09T12:46:51;100361.84;;;21.55;100.00
27334;BME280;14817;57.104;-2.094;2023-07-09T12:49:27;100378.31;;;21.78;100.00
27334;BME280;14817;57.104;-2.094;2023-07-09T12:51:58;100385.84;;;21.83;100.00
27334;BME280;14817;57.104;-2.094;2023-07-09T12:54:29;100385.56;;;21.54;100.00
27334;BME280;14817;57.104;-2.094;2023-07-09T12:56:59;100387.66;;;21.34;100.00
27334;BME280;14817;57.104;-2.094;2023-07-09T12:59:35;100383.63;;;21.18;100.00
27334;BME280;14817;57.104;-2.094;2023-07-09T13:04:38;100378.53;;;21.47;100.00
27334;BME280;14817;57.104;-2.094;2023-07-09T13:07:25;100380.03;;;21.61;100.00
27334;BME280;14817;57.104;-2.094;2023-07-09T13:09:54;100390.44;;;21.27;100.00
27334;BME280;14817;57.104;-2.094;2023-07-09T13:12:29;100379.63;;;21.39;100.00
27334;BME280;14817;57.104;-2.094;2023-07-09T13:14:57;100393.94;;;21.71;100.00
27334;BME280;14817;57.104;-2.094;2023-07-09T13:17:30;100418.47;;;21.71;100.00
27334;BME280;14817;57.104;-2.094;2023-07-09T13:19:58;100425.59;;;21.54;100.00
27334;BME280;14817;57.104;-2.094;2023-07-09T13:22:28;100419.91;;;21.37;100.00
27334;BME280;14817;57.104;-2.094;2023-07-09T13:24:55;100439.78;;;21.19;100.00
27334;BME280;14817;57.104;-2.094;2023-07-09T13:27:22;100457.75;;;20.76;100.00